Big Creek, California
Current Conditions -  °F | °C
As of 7:15 PM on Monday 20 Oct 2014 (Local Time) from KMMH Reporting Station
Clear Clear  
Wind Chill: 55°   Ceiling: Unl
Heat Index: 55°   Visibility: 10mi
Dew Point: 18°   Wind: 16mph
Humidity: 23%   Direction: 200°SSW
Pressure: 30.02"   Gusts: 26mph
Location:  37.2°N, 119.24°W
Report Text: KMMH 210215Z AUTO 20014G23KT 10SM CLR 13/M08 A3002 RMK AO1
Loading
Personal Weather Stations






























Interactive Weather Map
Tropical Storm Tracking
New forecast layout! Learn more

10-Day Weather Forecast

Advertisements
Track Severe Weather on mobile